Terminal Aerodrome Forecast
Issued by NWS

Home | Current Version | Previous Version | Graphics & Text | Print | Product List | Glossary On
Versions: 1 2 3 4 5 6 7 8 9 10 11 12 13 14 15 16 17 18
023
FTUS43 KBIS 051721
TAFJMS
TAF
KJMS 051721Z 0518/0618 30012KT P6SM SCT080
     FM052300 26008KT P6SM SCT250
     FM061600 23015KT P6SM BKN200=

USA.gov is the U.S. government's official web portal to all federal, state and local government web resources and services.